Skip Navigation LinksHome page > Weather > Current weather Skip Navigation Links

Current Weather

Detroit City, Detroit

For information only: do not use for flight planning or navigation.
Latest weather
Observation time Thursday, November 21, 2019 5:16 PM EST
Local time Thursday, November 21, 2019 5:31 PM EST
Flight conditions Instrument Meteorological Conditions
Winds
Wind direction South-Southwest (210°)
Wind speed 14 mph
Wind gusting to 24 mph
Visibility 5 mi.
Present weather mist
Sky condition
Ceiling 800 ft. overcast
Cloud layer overcast 800 ft.
Temperature 47°F
Dewpoint 46°F
Altimeter 29.70 in.Hg
Derived measurements
Relative humidity 97%
Wind chill 41°F
Density altitude 229 ft.
Remarks
Automated weather observing station with precipitation discriminator.
Ceiling.
METAR KDET 212216Z 21012G21KT 5SM BR OVC008 08/08 A2970 RMK AO2 CIG 007V012 T00830078

Settings

Location code

InnerDrive.Weather 4.0.6770.0 Release CLR 4.0.30319.42000
Copyright ©2018 Inner Drive Technology. All rights reserved. Portions Copyright ©1986-2018 David Braverman.

Find weather

Site navigation


Skip Navigation Links

Place info

Page info

PayPal - The safer, easier way to pay online!

Return home.

Copyright ©2019 Inner Drive Technology. Purveyors of fine, hand-crafted computer software. Page printed 2019-11-21T22:31:04 UTC.